createdAt,value
2022-08-21T00:00:34.253Z,4.90
2022-08-21T00:01:46.608Z,4.50
2022-08-21T00:03:00.308Z,4.70
2022-08-21T00:04:14.498Z,4.30
2022-08-21T00:05:31.795Z,4.70
2022-08-21T00:06:39.887Z,4.20
2022-08-21T00:07:48.267Z,4.30
2022-08-21T00:08:56.052Z,5.40
2022-08-21T00:10:07.343Z,5.20
2022-08-21T00:11:17.801Z,4.40
2022-08-21T00:12:26.893Z,4.20
2022-08-21T00:13:35.125Z,5.00
2022-08-21T00:14:44.084Z,5.90
2022-08-21T00:15:57.383Z,4.90
2022-08-21T00:17:09.684Z,4.10
2022-08-21T00:18:20.246Z,4.00
2022-08-21T00:19:28.980Z,4.90
2022-08-21T00:20:39.942Z,4.90
2022-08-21T00:21:51.030Z,4.70
2022-08-21T00:22:59.687Z,5.50
2022-08-21T00:24:09.922Z,4.80
2022-08-21T00:26:33.342Z,4.50
2022-08-21T00:27:44.231Z,4.80
2022-08-21T00:28:53.506Z,4.40
2022-08-21T00:30:03.322Z,5.90
2022-08-21T00:31:14.971Z,5.10
2022-08-21T00:32:25.429Z,5.00
2022-08-21T00:33:32.769Z,4.90
2022-08-21T00:34:40.618Z,4.70
2022-08-21T00:35:48.013Z,4.30
2022-08-21T00:36:59.484Z,4.70
2022-08-21T00:38:08.668Z,4.60
2022-08-21T00:39:17.742Z,4.80
2022-08-21T00:40:35.410Z,4.50
2022-08-21T00:41:45.687Z,6.00
2022-08-21T00:42:56.510Z,5.30
2022-08-21T00:44:07.011Z,4.60
2022-08-21T00:45:14.684Z,5.10
2022-08-21T00:46:24.865Z,4.90
2022-08-21T00:47:39.446Z,4.50
2022-08-21T00:48:51.404Z,4.80
2022-08-21T00:50:09.560Z,4.90
2022-08-21T00:51:58.521Z,4.80
2022-08-21T00:53:10.155Z,4.20
2022-08-21T00:54:20.516Z,4.50
2022-08-21T00:55:29.159Z,6.00
2022-08-21T00:56:39.451Z,4.30
2022-08-21T00:57:51.869Z,5.20
2022-08-21T00:59:03.209Z,4.60
2022-08-21T01:00:15.162Z,5.70
2022-08-21T01:01:23.603Z,4.80
2022-08-21T01:02:31.008Z,4.80
2022-08-21T01:03:44.146Z,5.20
2022-08-21T01:04:53.665Z,4.90
2022-08-21T01:06:07.029Z,4.30
2022-08-21T01:07:16.144Z,5.70
2022-08-21T01:09:35.166Z,5.80
2022-08-21T01:10:42.690Z,5.10
2022-08-21T01:11:50.936Z,5.30
2022-08-21T01:13:02.662Z,5.00
2022-08-21T01:14:15.963Z,5.00
2022-08-21T01:15:24.928Z,4.90
2022-08-21T01:16:32.707Z,4.60
2022-08-21T01:17:42.930Z,4.70
2022-08-21T01:18:51.374Z,4.80
2022-08-21T01:20:04.909Z,4.70
2022-08-21T01:21:21.078Z,4.70
2022-08-21T01:23:38.706Z,4.50
2022-08-21T01:24:49.840Z,4.30
2022-08-21T01:25:57.973Z,5.60
2022-08-21T01:27:06.124Z,4.20
2022-08-21T01:28:16.872Z,4.90
2022-08-21T01:29:36.521Z,4.30
2022-08-21T01:30:47.610Z,5.00
2022-08-21T01:31:57.323Z,4.70
2022-08-21T01:33:07.588Z,5.10
2022-08-21T01:34:20.752Z,5.70
2022-08-21T01:35:34.346Z,5.30
2022-08-21T01:36:50.708Z,4.80
2022-08-21T01:38:00.367Z,4.80
2022-08-21T01:39:13.013Z,4.50
2022-08-21T01:40:21.769Z,4.80
2022-08-21T01:41:32.007Z,4.40
2022-08-21T01:42:40.264Z,5.50
2022-08-21T01:43:47.936Z,6.30
2022-08-21T01:44:59.706Z,4.90
2022-08-21T01:46:11.093Z,5.10
2022-08-21T01:47:20.746Z,5.50
2022-08-21T01:48:30.860Z,4.40
2022-08-21T01:50:52.971Z,4.20
2022-08-21T01:52:09.522Z,4.40
2022-08-21T01:53:19.397Z,5.00
2022-08-21T01:54:38.889Z,5.10
2022-08-21T01:55:46.759Z,4.60
2022-08-21T01:56:58.091Z,4.80
2022-08-21T01:58:06.483Z,5.20
2022-08-21T01:59:15.857Z,4.40
2022-08-21T02:00:26.401Z,3.90
2022-08-21T02:01:34.247Z,5.40
2022-08-21T02:02:43.320Z,4.20
2022-08-21T02:03:51.802Z,4.80
2022-08-21T02:05:00.972Z,4.20
2022-08-21T02:07:19.222Z,4.90
2022-08-21T02:08:28.718Z,5.40
2022-08-21T02:09:36.590Z,5.90
2022-08-21T02:10:49.621Z,5.10
2022-08-21T02:11:58.927Z,5.60
2022-08-21T02:13:13.309Z,5.20
2022-08-21T02:14:31.945Z,5.90
2022-08-21T02:15:41.451Z,5.50
2022-08-21T02:16:50.269Z,6.10
2022-08-21T02:18:16.653Z,5.50
2022-08-21T02:19:29.309Z,4.60
2022-08-21T02:20:55.970Z,5.10
2022-08-21T02:22:07.225Z,4.90
2022-08-21T02:23:17.042Z,4.60
2022-08-21T02:24:28.835Z,5.40
2022-08-21T02:25:39.807Z,5.20
2022-08-21T02:26:49.521Z,4.90
2022-08-21T02:28:02.536Z,6.10
2022-08-21T02:29:12.555Z,5.90
2022-08-21T02:30:25.258Z,5.80
2022-08-21T02:31:37.167Z,5.30
2022-08-21T02:32:47.912Z,6.10
2022-08-21T02:33:57.765Z,5.60
2022-08-21T02:35:10.514Z,5.10
2022-08-21T02:36:19.592Z,5.70
2022-08-21T02:37:31.037Z,4.70
2022-08-21T02:38:41.952Z,5.30
2022-08-21T02:39:51.119Z,6.10
2022-08-21T02:41:03.112Z,6.10
2022-08-21T02:42:14.393Z,6.10
2022-08-21T02:43:26.033Z,5.40
2022-08-21T02:44:35.263Z,5.50
2022-08-21T02:46:01.507Z,4.90
2022-08-21T02:47:10.258Z,5.70
2022-08-21T02:48:25.795Z,4.80
2022-08-21T02:49:43.438Z,5.30
2022-08-21T02:51:00.301Z,5.70
2022-08-21T02:52:09.009Z,5.20
2022-08-21T02:53:20.207Z,5.20
2022-08-21T02:54:28.524Z,5.00
2022-08-21T02:55:39.199Z,5.90
2022-08-21T02:56:54.431Z,6.10
2022-08-21T02:58:13.808Z,5.50
2022-08-21T02:59:25.742Z,5.20
2022-08-21T03:00:43.155Z,6.40
2022-08-21T03:01:51.445Z,5.20
2022-08-21T03:03:02.655Z,5.20
2022-08-21T03:04:13.673Z,5.20
2022-08-21T03:05:25.321Z,6.60
2022-08-21T03:06:36.211Z,5.20
2022-08-21T03:07:46.175Z,5.30
2022-08-21T03:08:54.430Z,6.10
2022-08-21T03:10:09.345Z,6.60
2022-08-21T03:11:23.499Z,5.10
2022-08-21T03:12:34.073Z,5.50
2022-08-21T03:13:59.163Z,5.20
2022-08-21T03:15:26.560Z,5.90
2022-08-21T03:16:35.272Z,5.70
2022-08-21T03:17:44.850Z,6.80
2022-08-21T03:18:55.779Z,5.30
2022-08-21T03:20:08.527Z,5.80
2022-08-21T03:21:21.704Z,5.70
2022-08-21T03:22:31.192Z,6.50
2022-08-21T03:23:38.510Z,5.40
2022-08-21T03:24:47.865Z,5.30
2022-08-21T03:25:59.467Z,5.40
2022-08-21T03:27:09.549Z,4.70
2022-08-21T03:28:24.434Z,5.70
2022-08-21T03:29:32.984Z,5.50
2022-08-21T03:30:41.506Z,5.50
2022-08-21T03:31:49.812Z,5.50
2022-08-21T03:32:59.472Z,5.80
2022-08-21T03:34:13.726Z,6.10
2022-08-21T03:35:25.046Z,5.10
2022-08-21T03:36:33.277Z,5.30
2022-08-21T03:37:41.639Z,4.90
2022-08-21T03:38:52.654Z,5.20
2022-08-21T03:40:09.055Z,4.90
2022-08-21T03:41:19.325Z,5.00
2022-08-21T03:42:28.897Z,6.20
2022-08-21T03:44:00.664Z,5.50
2022-08-21T03:45:11.754Z,5.60
2022-08-21T03:46:29.289Z,6.20
2022-08-21T03:48:26.889Z,5.90
2022-08-21T03:51:38.489Z,5.60
2022-08-21T03:54:44.794Z,4.80
2022-08-21T03:56:01.593Z,6.30
2022-08-21T03:57:13.417Z,4.30
2022-08-21T03:58:23.818Z,5.10
2022-08-21T03:59:42.046Z,5.20
2022-08-21T04:01:07.274Z,4.50
2022-08-21T04:02:20.343Z,5.10
2022-08-21T04:03:29.597Z,4.80
2022-08-21T04:04:37.685Z,5.00
2022-08-21T04:05:52.316Z,5.50
2022-08-21T04:07:15.711Z,4.80
2022-08-21T04:08:29.180Z,5.10
2022-08-21T04:09:40.085Z,5.70
2022-08-21T04:10:48.204Z,6.30
2022-08-21T04:11:59.713Z,5.90
2022-08-21T04:13:09.171Z,4.90
2022-08-21T04:14:19.816Z,6.10
2022-08-21T04:15:29.451Z,5.60
2022-08-21T04:16:36.768Z,5.80
2022-08-21T04:17:44.445Z,5.40
2022-08-21T04:19:01.113Z,5.70
2022-08-21T04:20:20.784Z,5.20
2022-08-21T04:21:55.225Z,6.70
2022-08-21T04:23:08.284Z,5.80
2022-08-21T04:24:19.515Z,7.90
2022-08-21T04:25:31.088Z,6.90
2022-08-21T04:26:40.112Z,5.70
2022-08-21T04:27:48.558Z,5.90
2022-08-21T04:28:59.877Z,6.00
2022-08-21T04:30:09.566Z,5.30
2022-08-21T04:31:18.197Z,5.70
2022-08-21T04:32:27.961Z,4.00
2022-08-21T04:35:16.566Z,6.60
2022-08-21T04:36:26.546Z,5.70
2022-08-21T04:39:29.699Z,6.00
2022-08-21T04:40:49.037Z,5.10
2022-08-21T04:42:12.329Z,5.30
2022-08-21T04:43:22.409Z,4.70
2022-08-21T04:45:46.489Z,5.70
2022-08-21T04:46:54.594Z,6.60
2022-08-21T04:48:07.782Z,5.20
2022-08-21T04:49:35.108Z,5.80
2022-08-21T04:51:08.612Z,5.80
2022-08-21T04:52:22.998Z,5.50
2022-08-21T04:54:01.758Z,5.70
2022-08-21T04:55:20.566Z,7.40
2022-08-21T04:59:19.350Z,5.30
2022-08-21T05:00:33.452Z,5.60
2022-08-21T05:01:41.998Z,6.20
2022-08-21T05:02:50.246Z,5.20
2022-08-21T05:05:35.316Z,6.00
2022-08-21T05:06:54.562Z,5.20
2022-08-21T05:08:03.768Z,6.40
2022-08-21T05:09:12.518Z,6.80
2022-08-21T05:10:20.323Z,6.20
2022-08-21T05:11:28.334Z,6.20
2022-08-21T05:12:38.094Z,6.70
2022-08-21T05:13:45.871Z,6.30
2022-08-21T05:14:55.559Z,5.90
2022-08-21T05:16:03.781Z,7.60
2022-08-21T05:17:11.736Z,6.80
2022-08-21T05:18:18.929Z,5.70
2022-08-21T05:19:26.695Z,6.90
2022-08-21T05:20:33.614Z,6.60
2022-08-21T05:21:43.744Z,6.20
2022-08-21T05:22:51.252Z,6.40
2022-08-21T05:23:59.839Z,6.40
2022-08-21T05:25:10.814Z,6.20
2022-08-21T05:26:18.771Z,6.50
2022-08-21T05:27:26.223Z,7.00
2022-08-21T05:28:35.456Z,7.00
2022-08-21T05:29:44.386Z,6.70
2022-08-21T05:30:52.995Z,6.20
2022-08-21T05:32:03.162Z,6.10
2022-08-21T05:33:10.599Z,6.50
2022-08-21T05:34:23.653Z,5.30
2022-08-21T05:35:32.829Z,7.00
2022-08-21T05:36:40.920Z,6.70
2022-08-21T05:37:49.505Z,6.80
2022-08-21T05:38:59.253Z,6.50
2022-08-21T05:40:21.037Z,6.90
2022-08-21T05:41:34.404Z,6.30
2022-08-21T05:42:43.250Z,6.40
2022-08-21T05:43:54.188Z,6.80
2022-08-21T05:45:02.692Z,6.60
2022-08-21T05:46:12.431Z,6.20
2022-08-21T05:47:23.300Z,6.50
2022-08-21T05:48:31.634Z,6.00
2022-08-21T05:49:42.106Z,6.90
2022-08-21T05:50:50.924Z,6.70
2022-08-21T05:51:59.986Z,6.00
2022-08-21T05:53:08.596Z,6.10
2022-08-21T05:54:23.987Z,7.20
2022-08-21T05:55:35.873Z,5.40
2022-08-21T05:56:46.905Z,6.70
2022-08-21T05:57:55.566Z,5.60
2022-08-21T05:59:10.047Z,6.40
2022-08-21T06:00:20.615Z,6.10
2022-08-21T06:01:33.192Z,5.80
2022-08-21T06:02:44.689Z,6.20
2022-08-21T06:03:52.306Z,7.30
2022-08-21T06:05:05.986Z,6.00
2022-08-21T06:06:13.668Z,6.80
2022-08-21T06:07:23.428Z,7.00
2022-08-21T06:08:31.905Z,6.40
2022-08-21T06:09:40.445Z,6.10
2022-08-21T06:10:48.368Z,6.30
2022-08-21T06:11:55.882Z,6.90
2022-08-21T06:13:03.626Z,5.50
2022-08-21T06:14:12.112Z,6.20
2022-08-21T06:15:19.564Z,5.90
2022-08-21T06:16:29.215Z,5.60
2022-08-21T06:17:37.428Z,6.20
2022-08-21T06:18:45.204Z,6.30
2022-08-21T06:20:00.487Z,6.30
2022-08-21T06:21:12.049Z,6.80
2022-08-21T06:22:20.146Z,6.60
2022-08-21T06:23:33.055Z,6.50
2022-08-21T06:24:43.866Z,6.80
2022-08-21T06:25:53.267Z,6.20
2022-08-21T06:27:10.753Z,6.40
2022-08-21T06:28:20.170Z,5.90
2022-08-21T06:29:28.548Z,6.10
2022-08-21T06:30:36.579Z,6.60
2022-08-21T06:31:44.623Z,6.40
2022-08-21T06:32:55.630Z,7.40
2022-08-21T06:34:05.088Z,7.00
2022-08-21T06:36:25.089Z,6.80
2022-08-21T06:37:34.355Z,7.60
2022-08-21T06:38:50.789Z,6.90
2022-08-21T06:40:01.196Z,6.50
2022-08-21T06:41:11.595Z,7.50
2022-08-21T06:42:20.844Z,5.80
2022-08-21T06:43:39.494Z,6.10
2022-08-21T06:44:55.252Z,5.70
2022-08-21T06:46:04.760Z,6.20
2022-08-21T06:47:15.719Z,6.70
2022-08-21T06:48:24.473Z,7.20
2022-08-21T06:49:33.674Z,6.90
2022-08-21T06:50:42.574Z,6.80
2022-08-21T06:51:50.113Z,6.30
2022-08-21T06:53:08.161Z,6.60
2022-08-21T06:54:17.353Z,6.00
2022-08-21T06:55:29.294Z,7.00
2022-08-21T06:56:40.372Z,5.50
2022-08-21T06:57:52.439Z,6.80
2022-08-21T06:59:04.835Z,6.40
2022-08-21T07:00:13.974Z,5.70
2022-08-21T07:01:24.495Z,5.70
2022-08-21T07:02:36.181Z,5.90
2022-08-21T07:03:54.037Z,6.80
2022-08-21T07:05:17.583Z,6.80
2022-08-21T07:06:27.678Z,6.00
2022-08-21T07:07:40.629Z,5.30
2022-08-21T07:08:49.429Z,5.40
2022-08-21T07:10:00.395Z,5.40
2022-08-21T07:11:12.256Z,5.50
2022-08-21T07:12:20.714Z,5.80
2022-08-21T07:13:32.086Z,5.30
2022-08-21T07:14:41.505Z,6.00
2022-08-21T07:15:52.739Z,6.80
2022-08-21T07:17:01.601Z,6.00
2022-08-21T07:18:08.868Z,5.80
2022-08-21T07:19:16.649Z,5.60
2022-08-21T07:20:24.720Z,5.90
2022-08-21T07:21:33.431Z,5.60
2022-08-21T07:22:42.554Z,5.50
2022-08-21T07:23:52.402Z,5.40
2022-08-21T07:25:01.830Z,5.50
2022-08-21T07:26:13.818Z,5.20
2022-08-21T07:27:21.943Z,6.30
2022-08-21T07:28:31.781Z,5.40
2022-08-21T07:29:42.388Z,4.70
2022-08-21T07:30:54.701Z,6.30
2022-08-21T07:32:02.899Z,6.10
2022-08-21T07:33:10.850Z,5.60
2022-08-21T07:34:22.602Z,5.20
2022-08-21T07:35:36.272Z,6.20
2022-08-21T07:36:45.019Z,6.90
2022-08-21T07:37:55.738Z,5.60
2022-08-21T07:39:05.600Z,5.50
2022-08-21T07:40:14.009Z,5.80
2022-08-21T07:41:28.587Z,5.90
2022-08-21T07:42:43.412Z,5.90
2022-08-21T07:43:51.311Z,5.60
2022-08-21T07:45:03.101Z,6.30
2022-08-21T07:46:13.842Z,6.10
2022-08-21T07:47:29.553Z,6.60
2022-08-21T07:48:53.800Z,6.70
2022-08-21T07:50:08.228Z,7.20
2022-08-21T07:51:18.819Z,6.30
2022-08-21T07:52:27.517Z,6.80
2022-08-21T07:53:40.769Z,7.00
2022-08-21T07:54:49.850Z,6.40
2022-08-21T07:56:00.473Z,6.50
2022-08-21T07:57:08.039Z,6.30
2022-08-21T07:58:15.127Z,6.90
2022-08-21T07:59:22.434Z,7.10
2022-08-21T08:00:32.924Z,6.60
2022-08-21T08:01:43.129Z,7.40
2022-08-21T08:02:53.913Z,6.60
2022-08-21T08:04:01.309Z,6.80
2022-08-21T08:05:13.273Z,6.60
2022-08-21T08:06:21.401Z,6.50
2022-08-21T08:07:31.308Z,7.60
2022-08-21T08:08:42.991Z,7.40
2022-08-21T08:09:50.588Z,6.90
2022-08-21T08:10:59.067Z,6.40
2022-08-21T08:12:10.048Z,7.40
2022-08-21T08:13:17.486Z,6.80
2022-08-21T08:14:30.636Z,7.00
2022-08-21T08:15:41.504Z,6.70
2022-08-21T08:16:51.406Z,7.20
2022-08-21T08:18:03.142Z,7.10
2022-08-21T08:19:11.849Z,6.80
2022-08-21T08:20:22.413Z,6.40
2022-08-21T08:21:31.196Z,6.60
2022-08-21T08:22:41.262Z,6.50
2022-08-21T08:23:48.931Z,6.90
2022-08-21T08:24:57.222Z,6.20
2022-08-21T08:26:07.794Z,6.90
2022-08-21T08:27:15.373Z,6.50
2022-08-21T08:28:24.018Z,6.00
2022-08-21T08:29:33.218Z,7.50
2022-08-21T08:30:40.496Z,6.90
2022-08-21T08:31:48.715Z,6.80
2022-08-21T08:32:56.120Z,6.10
2022-08-21T08:34:03.763Z,6.90
2022-08-21T08:35:13.112Z,6.70
2022-08-21T08:36:23.709Z,6.00
2022-08-21T08:37:34.424Z,6.90
2022-08-21T08:38:43.354Z,7.30
2022-08-21T08:41:21.903Z,7.10
2022-08-21T08:42:35.128Z,5.80
2022-08-21T08:43:53.118Z,6.30
2022-08-21T08:45:13.117Z,6.40
2022-08-21T08:46:25.724Z,7.60
2022-08-21T08:47:36.696Z,7.00
2022-08-21T08:49:07.706Z,6.40
2022-08-21T08:50:29.213Z,7.00
2022-08-21T08:52:21.630Z,6.70
2022-08-21T08:53:36.767Z,7.20
2022-08-21T08:54:51.639Z,8.10
2022-08-21T08:57:08.562Z,6.90
2022-08-21T08:58:27.577Z,6.80
2022-08-21T08:59:43.781Z,7.40
2022-08-21T09:00:53.515Z,6.50
2022-08-21T09:02:03.603Z,6.90
2022-08-21T09:03:11.256Z,7.00
2022-08-21T09:04:23.974Z,6.50
2022-08-21T09:05:56.797Z,7.10
2022-08-21T09:07:19.669Z,8.20
2022-08-21T09:08:54.564Z,7.40
2022-08-21T09:10:38.553Z,7.10
2022-08-21T09:11:53.363Z,6.90
2022-08-21T09:13:24.404Z,7.10
2022-08-21T09:14:54.537Z,7.40
2022-08-21T09:16:21.876Z,6.80
2022-08-21T09:17:53.037Z,6.50
2022-08-21T09:19:13.739Z,7.80
2022-08-21T09:20:37.568Z,6.50
2022-08-21T09:22:02.327Z,6.90
2022-08-21T09:23:31.321Z,6.50
2022-08-21T09:25:00.723Z,7.60
2022-08-21T09:26:10.382Z,6.60
2022-08-21T09:27:19.282Z,7.40
2022-08-21T09:28:26.594Z,6.70
2022-08-21T09:29:34.731Z,6.10
2022-08-21T09:30:45.408Z,6.70
2022-08-21T09:31:53.121Z,7.20
2022-08-21T09:33:01.198Z,5.90
2022-08-21T09:34:13.551Z,6.70
2022-08-21T09:35:22.627Z,8.10
2022-08-21T09:36:51.044Z,7.10
2022-08-21T09:38:01.629Z,7.50
2022-08-21T09:39:09.833Z,6.10
2022-08-21T09:40:40.074Z,6.90
2022-08-21T09:41:47.533Z,6.70
2022-08-21T09:43:23.783Z,7.10
2022-08-21T09:44:35.932Z,6.50
2022-08-21T09:45:47.337Z,7.30
2022-08-21T09:46:54.958Z,7.80
2022-08-21T09:48:17.564Z,6.50
2022-08-21T09:49:34.979Z,7.10
2022-08-21T09:50:42.895Z,7.40
2022-08-21T09:51:53.998Z,6.70
2022-08-21T09:53:03.322Z,7.60
2022-08-21T09:54:11.540Z,7.00
2022-08-21T09:55:51.169Z,7.80
2022-08-21T09:57:26.812Z,7.60
2022-08-21T09:58:37.183Z,6.90
2022-08-21T09:59:45.340Z,7.40
2022-08-21T10:01:16.451Z,7.20
2022-08-21T10:02:32.147Z,7.30
2022-08-21T10:03:43.576Z,7.60
2022-08-21T10:05:05.089Z,7.70
2022-08-21T10:06:13.111Z,7.60
2022-08-21T10:07:23.795Z,8.50
2022-08-21T10:08:31.627Z,7.70
2022-08-21T10:09:39.767Z,8.10
2022-08-21T10:10:46.596Z,8.40
2022-08-21T10:12:19.549Z,7.50
2022-08-21T10:13:42.698Z,7.40
2022-08-21T10:15:10.877Z,7.40
2022-08-21T10:16:36.296Z,7.70
2022-08-21T10:18:08.032Z,7.50
2022-08-21T10:19:30.921Z,7.20
2022-08-21T10:21:04.282Z,8.20
2022-08-21T10:23:06.195Z,7.30
2022-08-21T10:24:55.969Z,7.40
2022-08-21T10:26:32.735Z,9.00
2022-08-21T10:28:02.885Z,7.30
2022-08-21T10:29:15.882Z,8.20
2022-08-21T10:30:34.643Z,7.70
2022-08-21T10:32:01.101Z,7.30
2022-08-21T10:33:14.946Z,7.50
2022-08-21T10:34:50.916Z,7.90
2022-08-21T10:36:38.539Z,6.80
2022-08-21T10:37:48.213Z,7.60
2022-08-21T10:39:26.475Z,7.70
2022-08-21T10:41:52.900Z,7.20
2022-08-21T10:43:46.178Z,8.70
2022-08-21T10:45:16.391Z,7.80
2022-08-21T10:46:46.149Z,8.10
2022-08-21T10:47:58.193Z,7.40
2022-08-21T10:49:17.151Z,8.30
2022-08-21T10:50:48.672Z,7.40
2022-08-21T10:52:33.881Z,8.00
2022-08-21T10:54:14.232Z,8.20
2022-08-21T10:56:44.355Z,7.50
2022-08-21T10:58:17.314Z,9.50
2022-08-21T10:59:38.088Z,7.80
2022-08-21T11:00:52.808Z,8.00
2022-08-21T11:02:47.129Z,8.80
2022-08-21T11:03:55.713Z,7.80
2022-08-21T11:05:07.955Z,9.50
2022-08-21T11:06:26.016Z,8.80
2022-08-21T11:08:10.565Z,8.10
2022-08-21T11:09:21.436Z,9.20
2022-08-21T11:10:57.927Z,7.80
2022-08-21T11:13:00.488Z,8.40
2022-08-21T11:14:37.539Z,8.20
2022-08-21T11:15:54.849Z,8.20
2022-08-21T11:17:20.179Z,8.30
2022-08-21T11:18:40.937Z,8.20
2022-08-21T11:20:24.033Z,8.30
2022-08-21T11:21:42.273Z,8.80
2022-08-21T11:23:03.054Z,7.80
2022-08-21T11:24:36.058Z,7.70
2022-08-21T11:25:49.497Z,7.00
2022-08-21T11:27:17.798Z,7.60
2022-08-21T11:28:55.120Z,7.60
2022-08-21T11:30:04.050Z,8.30
2022-08-21T11:31:43.686Z,7.60
2022-08-21T11:33:02.729Z,8.10
2022-08-21T11:34:32.770Z,9.10
2022-08-21T11:35:50.681Z,8.10
2022-08-21T11:37:38.982Z,9.30
2022-08-21T11:38:54.342Z,9.00
2022-08-21T11:40:38.161Z,9.20
2022-08-21T11:41:52.250Z,9.30
2022-08-21T11:43:27.157Z,8.00
2022-08-21T11:45:10.651Z,8.10
2022-08-21T11:46:42.826Z,8.80
2022-08-21T11:48:18.455Z,8.30
2022-08-21T11:49:49.997Z,9.50
2022-08-21T11:50:57.648Z,10.50
2022-08-21T11:52:30.690Z,8.70
2022-08-21T11:53:54.503Z,8.60
2022-08-21T11:55:43.686Z,8.90
2022-08-21T11:57:17.680Z,8.40
2022-08-21T11:58:39.440Z,7.60
2022-08-21T11:59:49.185Z,9.30
2022-08-21T12:01:24.066Z,8.70
2022-08-21T12:02:36.766Z,8.80
2022-08-21T12:04:05.873Z,7.90
2022-08-21T12:05:23.754Z,8.50
2022-08-21T12:06:41.948Z,8.80
2022-08-21T12:08:01.508Z,9.30
2022-08-21T12:09:14.168Z,7.50
2022-08-21T12:10:23.347Z,7.60
2022-08-21T12:11:31.666Z,9.30
2022-08-21T12:12:40.461Z,9.20
2022-08-21T12:14:14.836Z,8.70
2022-08-21T12:15:30.494Z,8.90
2022-08-21T12:16:40.921Z,9.00
2022-08-21T12:18:03.867Z,8.00
2022-08-21T12:19:24.470Z,7.70
2022-08-21T12:20:50.173Z,8.20
2022-08-21T12:22:02.579Z,8.40
2022-08-21T12:23:14.212Z,9.00
2022-08-21T12:24:44.312Z,9.00
2022-08-21T12:26:19.573Z,7.80
2022-08-21T12:27:32.144Z,9.50
2022-08-21T12:28:39.641Z,8.30
2022-08-21T12:29:58.609Z,8.50
2022-08-21T12:31:06.949Z,9.40
2022-08-21T12:32:17.346Z,8.40
2022-08-21T12:33:41.939Z,8.00
2022-08-21T12:34:55.928Z,7.90
2022-08-21T12:36:24.770Z,8.00
2022-08-21T12:37:47.938Z,8.90
2022-08-21T12:39:11.241Z,8.60
2022-08-21T12:40:42.549Z,8.30
2022-08-21T12:42:15.791Z,8.80
2022-08-21T12:44:03.216Z,9.10
2022-08-21T12:45:43.358Z,9.40
2022-08-21T12:47:03.299Z,8.90
2022-08-21T12:48:17.535Z,8.60
2022-08-21T12:49:42.335Z,9.00
2022-08-21T12:50:58.855Z,10.60
2022-08-21T12:52:36.952Z,8.00
2022-08-21T12:53:54.330Z,8.20
2022-08-21T12:55:02.068Z,10.30
2022-08-21T12:56:13.769Z,8.80
2022-08-21T12:57:30.770Z,8.00
2022-08-21T12:58:39.277Z,7.70
2022-08-21T12:59:46.965Z,8.10
2022-08-21T13:00:56.752Z,8.60
2022-08-21T13:02:04.414Z,8.60
2022-08-21T13:03:15.467Z,9.20
2022-08-21T13:04:28.268Z,9.30
2022-08-21T13:05:39.215Z,8.90
2022-08-21T13:06:53.486Z,8.70
2022-08-21T13:08:01.135Z,8.70
2022-08-21T13:09:10.243Z,8.60
2022-08-21T13:10:22.709Z,8.00
2022-08-21T13:11:34.392Z,7.90
2022-08-21T13:12:44.860Z,8.90
2022-08-21T13:13:53.542Z,8.10
2022-08-21T13:15:09.175Z,8.30
2022-08-21T13:16:20.659Z,8.40
2022-08-21T13:17:29.450Z,9.80
2022-08-21T13:18:57.322Z,7.90
2022-08-21T13:20:09.969Z,8.30
2022-08-21T13:21:18.572Z,7.80
2022-08-21T13:22:34.055Z,7.70
2022-08-21T13:23:44.991Z,8.50
2022-08-21T13:24:53.453Z,8.80
2022-08-21T13:26:05.215Z,8.80
2022-08-21T13:27:28.325Z,8.70
2022-08-21T13:28:39.821Z,8.70
2022-08-21T13:29:53.136Z,9.00
2022-08-21T13:31:04.245Z,9.00
2022-08-21T13:32:22.163Z,8.50
2022-08-21T13:33:34.051Z,8.00
2022-08-21T13:34:46.363Z,8.90
2022-08-21T13:36:20.047Z,8.60
2022-08-21T13:37:29.470Z,8.30
2022-08-21T13:38:43.537Z,7.80
2022-08-21T13:39:55.489Z,9.00
2022-08-21T13:41:19.977Z,8.00
2022-08-21T13:42:27.766Z,7.90
2022-08-21T13:43:38.399Z,8.40
2022-08-21T13:44:47.629Z,8.40
2022-08-21T13:45:55.778Z,8.30
2022-08-21T13:47:03.797Z,8.30
2022-08-21T13:48:13.709Z,9.40
2022-08-21T13:49:22.398Z,8.50
2022-08-21T13:50:29.710Z,9.60
2022-08-21T13:51:37.342Z,8.70
2022-08-21T13:53:25.043Z,9.80
2022-08-21T13:54:42.846Z,8.50
2022-08-21T13:55:52.019Z,8.70
2022-08-21T13:56:59.538Z,10.90
2022-08-21T13:58:07.029Z,9.40
2022-08-21T13:59:30.338Z,9.00
2022-08-21T14:00:46.531Z,9.50
2022-08-21T14:02:01.893Z,9.20
2022-08-21T14:03:11.062Z,10.70
2022-08-21T14:04:35.521Z,10.30
2022-08-21T14:05:49.326Z,8.80
2022-08-21T14:06:56.908Z,9.10
2022-08-21T14:08:09.190Z,9.50
2022-08-21T14:09:36.919Z,9.20
2022-08-21T14:10:46.885Z,9.80
2022-08-21T14:11:54.244Z,9.70
2022-08-21T14:13:06.077Z,9.80
2022-08-21T14:14:23.817Z,9.50
2022-08-21T14:15:32.972Z,8.80
2022-08-21T14:17:24.023Z,10.10
2022-08-21T14:18:33.184Z,9.80
2022-08-21T14:19:46.660Z,11.40
2022-08-21T14:20:53.827Z,9.90
2022-08-21T14:22:01.012Z,11.00
2022-08-21T14:23:11.194Z,10.60
2022-08-21T14:24:30.562Z,10.70
2022-08-21T14:25:44.187Z,10.60
2022-08-21T14:26:54.589Z,10.40
2022-08-21T14:28:30.470Z,10.90
2022-08-21T14:29:42.050Z,11.00
2022-08-21T14:30:53.860Z,10.70
2022-08-21T14:32:02.313Z,11.10
2022-08-21T14:33:18.518Z,11.50
2022-08-21T14:34:35.892Z,11.40
2022-08-21T14:35:49.873Z,11.70
2022-08-21T14:37:00.414Z,11.00
2022-08-21T14:38:15.708Z,10.90
2022-08-21T14:39:23.669Z,9.40
2022-08-21T14:40:33.422Z,10.80
2022-08-21T14:41:43.159Z,11.80
2022-08-21T14:42:54.896Z,10.30
2022-08-21T14:44:08.108Z,11.20
2022-08-21T14:45:32.670Z,11.20
2022-08-21T14:46:55.931Z,12.30
2022-08-21T14:48:08.617Z,10.10
2022-08-21T14:49:19.237Z,9.40
2022-08-21T14:50:29.427Z,10.90
2022-08-21T14:51:44.382Z,11.70
2022-08-21T14:53:03.020Z,13.20
2022-08-21T14:54:20.929Z,11.70
2022-08-21T14:55:32.058Z,11.00
2022-08-21T14:56:46.612Z,12.80
2022-08-21T14:57:56.577Z,10.50
2022-08-21T14:59:11.346Z,14.30
2022-08-21T15:00:21.527Z,12.30
2022-08-21T15:01:28.841Z,12.80
2022-08-21T15:02:36.310Z,11.60
2022-08-21T15:03:44.841Z,12.00
2022-08-21T15:04:54.530Z,12.80
2022-08-21T15:06:04.626Z,13.70
2022-08-21T15:07:12.693Z,12.90
2022-08-21T15:08:23.930Z,11.80
2022-08-21T15:09:33.703Z,12.40
2022-08-21T15:11:08.274Z,12.30
2022-08-21T15:12:14.182Z,11.90
2022-08-21T15:13:22.709Z,11.40
2022-08-21T15:14:32.201Z,11.50
2022-08-21T15:15:44.110Z,12.30
2022-08-21T15:16:52.849Z,13.20
2022-08-21T15:18:00.083Z,13.10
2022-08-21T15:19:10.599Z,12.30
2022-08-21T15:20:17.814Z,11.90
2022-08-21T15:21:25.369Z,12.70
2022-08-21T15:22:36.242Z,11.30
2022-08-21T15:23:47.118Z,10.70
2022-08-21T15:24:58.310Z,12.40
2022-08-21T15:26:06.405Z,11.80
2022-08-21T15:27:14.335Z,12.80
2022-08-21T15:28:31.566Z,15.00
2022-08-21T15:29:44.585Z,11.50
2022-08-21T15:30:53.245Z,10.70
2022-08-21T15:32:01.972Z,14.30
2022-08-21T15:33:12.285Z,13.50
2022-08-21T15:34:19.860Z,10.40
2022-08-21T15:35:27.668Z,11.50
2022-08-21T15:36:37.163Z,13.50
2022-08-21T15:37:46.071Z,13.30
2022-08-21T15:38:54.895Z,13.70
2022-08-21T15:40:09.043Z,12.60
2022-08-21T15:41:20.538Z,12.40
2022-08-21T15:42:29.520Z,12.10
2022-08-21T15:43:47.918Z,14.00
2022-08-21T15:44:59.919Z,12.50
2022-08-21T15:46:08.236Z,12.10
2022-08-21T15:47:20.074Z,15.50
2022-08-21T15:48:31.192Z,14.20
2022-08-21T15:49:40.978Z,14.70
2022-08-21T15:50:49.378Z,13.40
2022-08-21T15:51:57.212Z,12.90
2022-08-21T15:53:06.372Z,13.00
2022-08-21T15:54:15.386Z,14.20
2022-08-21T15:55:26.426Z,12.00
2022-08-21T15:56:40.576Z,14.20
2022-08-21T15:57:57.984Z,14.30
2022-08-21T16:00:22.254Z,13.10
2022-08-21T16:01:36.072Z,13.10
2022-08-21T16:02:55.884Z,12.40
2022-08-21T16:04:04.175Z,14.00
2022-08-21T16:05:15.653Z,13.80
2022-08-21T16:06:38.255Z,14.10
2022-08-21T16:07:52.283Z,14.60
2022-08-21T16:09:01.613Z,14.30
2022-08-21T16:10:09.464Z,14.00
2022-08-21T16:11:17.092Z,14.00
2022-08-21T16:12:30.918Z,14.60
2022-08-21T16:13:41.728Z,13.40
2022-08-21T16:14:51.775Z,14.60
2022-08-21T16:16:01.797Z,13.20
2022-08-21T16:17:11.718Z,14.40
2022-08-21T16:18:20.187Z,13.20
2022-08-21T16:19:28.065Z,12.10
2022-08-21T16:20:36.456Z,15.30
2022-08-21T16:21:45.388Z,15.30
2022-08-21T16:22:56.796Z,14.70
2022-08-21T16:24:06.582Z,14.10
2022-08-21T16:25:16.304Z,13.90
2022-08-21T16:26:27.104Z,13.80
2022-08-21T16:27:37.960Z,12.70
2022-08-21T16:28:49.721Z,12.10
2022-08-21T16:29:58.137Z,14.80
2022-08-21T16:31:08.838Z,13.70
2022-08-21T16:32:17.837Z,12.30
2022-08-21T16:33:40.690Z,13.60
2022-08-21T16:34:50.377Z,14.10
2022-08-21T16:36:02.514Z,14.30
2022-08-21T16:37:11.616Z,13.80
2022-08-21T16:38:20.179Z,14.60
2022-08-21T16:39:28.349Z,13.20
2022-08-21T16:40:40.271Z,13.00
2022-08-21T16:41:51.125Z,12.70
2022-08-21T16:43:00.754Z,13.90
2022-08-21T16:44:11.867Z,14.70
2022-08-21T16:45:22.260Z,13.60
2022-08-21T16:46:31.463Z,13.60
2022-08-21T16:47:42.122Z,12.70
2022-08-21T16:48:49.631Z,12.80
2022-08-21T16:49:58.601Z,13.90